sensor_id;sensor_type;location;lat;lon;timestamp;P1;durP1;ratioP1;P2;durP2;ratioP2
24521;SDS011;12680;57.804;12.190;2023-03-21T00:01:50;5.10;;;2.63;;
24521;SDS011;12680;57.804;12.190;2023-03-21T00:04:19;4.45;;;2.85;;
24521;SDS011;12680;57.804;12.190;2023-03-21T00:06:47;4.43;;;2.85;;
24521;SDS011;12680;57.804;12.190;2023-03-21T00:09:14;4.47;;;2.50;;
24521;SDS011;12680;57.804;12.190;2023-03-21T00:11:41;2.78;;;2.00;;
24521;SDS011;12680;57.804;12.190;2023-03-21T00:14:07;2.75;;;1.88;;
24521;SDS011;12680;57.804;12.190;2023-03-21T00:16:40;3.70;;;2.15;;
24521;SDS011;12680;57.804;12.190;2023-03-21T00:19:07;2.95;;;2.13;;
24521;SDS011;12680;57.804;12.190;2023-03-21T00:21:35;2.65;;;1.98;;
24521;SDS011;12680;57.804;12.190;2023-03-21T00:24:21;2.97;;;1.77;;
24521;SDS011;12680;57.804;12.190;2023-03-21T00:26:49;12.07;;;2.85;;
24521;SDS011;12680;57.804;12.190;2023-03-21T00:29:16;7.38;;;2.92;;
24521;SDS011;12680;57.804;12.190;2023-03-21T00:31:44;3.15;;;2.40;;
24521;SDS011;12680;57.804;12.190;2023-03-21T00:34:11;4.22;;;2.60;;
24521;SDS011;12680;57.804;12.190;2023-03-21T00:36:43;5.57;;;3.05;;
24521;SDS011;12680;57.804;12.190;2023-03-21T00:39:10;8.80;;;2.90;;
24521;SDS011;12680;57.804;12.190;2023-03-21T00:41:37;10.57;;;2.72;;
24521;SDS011;12680;57.804;12.190;2023-03-21T00:44:09;14.93;;;3.00;;
24521;SDS011;12680;57.804;12.190;2023-03-21T00:46:39;3.00;;;2.25;;
24521;SDS011;12680;57.804;12.190;2023-03-21T00:49:25;10.32;;;2.88;;
24521;SDS011;12680;57.804;12.190;2023-03-21T00:51:52;9.55;;;2.90;;
24521;SDS011;12680;57.804;12.190;2023-03-21T00:54:22;7.35;;;2.70;;
24521;SDS011;12680;57.804;12.190;2023-03-21T00:56:49;4.13;;;2.85;;
24521;SDS011;12680;57.804;12.190;2023-03-21T00:59:16;4.70;;;2.70;;
24521;SDS011;12680;57.804;12.190;2023-03-21T01:01:43;5.15;;;2.88;;
24521;SDS011;12680;57.804;12.190;2023-03-21T01:04:12;7.43;;;2.33;;
24521;SDS011;12680;57.804;12.190;2023-03-21T01:06:42;4.47;;;3.25;;
24521;SDS011;12680;57.804;12.190;2023-03-21T01:09:14;4.15;;;2.50;;
24521;SDS011;12680;57.804;12.190;2023-03-21T01:11:43;6.88;;;2.72;;
24521;SDS011;12680;57.804;12.190;2023-03-21T01:14:11;5.32;;;2.25;;
24521;SDS011;12680;57.804;12.190;2023-03-21T01:16:50;9.68;;;2.30;;
24521;SDS011;12680;57.804;12.190;2023-03-21T01:19:19;5.72;;;1.95;;
24521;SDS011;12680;57.804;12.190;2023-03-21T01:21:56;8.02;;;2.00;;
24521;SDS011;12680;57.804;12.190;2023-03-21T01:24:23;18.13;;;1.92;;
24521;SDS011;12680;57.804;12.190;2023-03-21T01:26:50;4.00;;;2.35;;
24521;SDS011;12680;57.804;12.190;2023-03-21T01:29:17;16.48;;;2.13;;
24521;SDS011;12680;57.804;12.190;2023-03-21T01:31:44;10.43;;;2.20;;
24521;SDS011;12680;57.804;12.190;2023-03-21T01:34:11;5.20;;;1.70;;
24521;SDS011;12680;57.804;12.190;2023-03-21T01:36:38;4.32;;;1.92;;
24521;SDS011;12680;57.804;12.190;2023-03-21T01:39:05;5.55;;;1.48;;
24521;SDS011;12680;57.804;12.190;2023-03-21T01:41:37;10.13;;;1.48;;
24521;SDS011;12680;57.804;12.190;2023-03-21T01:44:13;13.57;;;1.38;;
24521;SDS011;12680;57.804;12.190;2023-03-21T01:46:46;4.80;;;1.67;;
24521;SDS011;12680;57.804;12.190;2023-03-21T01:49:36;1.85;;;1.48;;
24521;SDS011;12680;57.804;12.190;2023-03-21T01:52:07;2.42;;;1.45;;
24521;SDS011;12680;57.804;12.190;2023-03-21T01:54:55;3.78;;;1.50;;
24521;SDS011;12680;57.804;12.190;2023-03-21T01:57:24;2.58;;;1.70;;
24521;SDS011;12680;57.804;12.190;2023-03-21T02:00:10;7.93;;;1.70;;
24521;SDS011;12680;57.804;12.190;2023-03-21T02:02:39;20.42;;;1.55;;
24521;SDS011;12680;57.804;12.190;2023-03-21T02:08:08;2.72;;;1.40;;
24521;SDS011;12680;57.804;12.190;2023-03-21T02:10:35;1.73;;;1.40;;
24521;SDS011;12680;57.804;12.190;2023-03-21T02:13:03;2.28;;;1.33;;
24521;SDS011;12680;57.804;12.190;2023-03-21T02:15:36;3.60;;;1.30;;
24521;SDS011;12680;57.804;12.190;2023-03-21T02:30:15;5.82;;;1.38;;
24521;SDS011;12680;57.804;12.190;2023-03-21T02:35:55;2.70;;;1.85;;
24521;SDS011;12680;57.804;12.190;2023-03-21T02:39:06;1.83;;;1.60;;
24521;SDS011;12680;57.804;12.190;2023-03-21T02:41:53;2.60;;;1.67;;
24521;SDS011;12680;57.804;12.190;2023-03-21T02:44:40;2.97;;;1.50;;
24521;SDS011;12680;57.804;12.190;2023-03-21T02:47:32;1.88;;;1.42;;
24521;SDS011;12680;57.804;12.190;2023-03-21T02:52:32;2.63;;;1.98;;
24521;SDS011;12680;57.804;12.190;2023-03-21T02:55:06;2.63;;;1.60;;
24521;SDS011;12680;57.804;12.190;2023-03-21T02:57:52;2.67;;;1.60;;
24521;SDS011;12680;57.804;12.190;2023-03-21T03:00:24;2.88;;;1.80;;
24521;SDS011;12680;57.804;12.190;2023-03-21T03:05:35;5.40;;;2.10;;
24521;SDS011;12680;57.804;12.190;2023-03-21T03:13:34;6.35;;;2.00;;
24521;SDS011;12680;57.804;12.190;2023-03-21T03:16:24;4.97;;;2.05;;
24521;SDS011;12680;57.804;12.190;2023-03-21T03:19:03;2.45;;;1.60;;
24521;SDS011;12680;57.804;12.190;2023-03-21T03:21:38;4.68;;;1.80;;
24521;SDS011;12680;57.804;12.190;2023-03-21T03:24:19;16.25;;;1.70;;
24521;SDS011;12680;57.804;12.190;2023-03-21T03:27:23;3.03;;;1.95;;
24521;SDS011;12680;57.804;12.190;2023-03-21T03:29:51;5.55;;;2.13;;
24521;SDS011;12680;57.804;12.190;2023-03-21T03:32:21;7.65;;;2.05;;
24521;SDS011;12680;57.804;12.190;2023-03-21T03:34:55;2.40;;;1.60;;
24521;SDS011;12680;57.804;12.190;2023-03-21T03:37:24;3.20;;;2.00;;
24521;SDS011;12680;57.804;12.190;2023-03-21T03:40:02;3.78;;;2.22;;
24521;SDS011;12680;57.804;12.190;2023-03-21T03:42:34;4.35;;;2.25;;
24521;SDS011;12680;57.804;12.190;2023-03-21T03:45:04;3.25;;;1.77;;
24521;SDS011;12680;57.804;12.190;2023-03-21T03:47:41;2.05;;;1.48;;
24521;SDS011;12680;57.804;12.190;2023-03-21T03:50:30;2.65;;;1.80;;
24521;SDS011;12680;57.804;12.190;2023-03-21T03:53:10;2.65;;;1.73;;
24521;SDS011;12680;57.804;12.190;2023-03-21T03:56:02;1.58;;;1.20;;
24521;SDS011;12680;57.804;12.190;2023-03-21T03:58:32;2.47;;;1.60;;
24521;SDS011;12680;57.804;12.190;2023-03-21T04:01:10;2.20;;;1.60;;
24521;SDS011;12680;57.804;12.190;2023-03-21T04:03:38;1.90;;;1.55;;
24521;SDS011;12680;57.804;12.190;2023-03-21T04:06:16;1.98;;;1.40;;
24521;SDS011;12680;57.804;12.190;2023-03-21T04:08:44;1.40;;;1.20;;
24521;SDS011;12680;57.804;12.190;2023-03-21T04:11:12;2.15;;;1.35;;
24521;SDS011;12680;57.804;12.190;2023-03-21T04:13:40;1.40;;;1.20;;
24521;SDS011;12680;57.804;12.190;2023-03-21T04:16:08;2.17;;;1.40;;
24521;SDS011;12680;57.804;12.190;2023-03-21T04:18:37;1.17;;;1.08;;
24521;SDS011;12680;57.804;12.190;2023-03-21T04:21:10;2.63;;;1.30;;
24521;SDS011;12680;57.804;12.190;2023-03-21T04:26:06;1.92;;;1.30;;
24521;SDS011;12680;57.804;12.190;2023-03-21T04:28:33;1.80;;;1.30;;
24521;SDS011;12680;57.804;12.190;2023-03-21T04:31:06;1.55;;;1.45;;
24521;SDS011;12680;57.804;12.190;2023-03-21T04:33:50;1.42;;;1.20;;
24521;SDS011;12680;57.804;12.190;2023-03-21T04:36:17;1.40;;;1.30;;
24521;SDS011;12680;57.804;12.190;2023-03-21T04:38:52;1.45;;;1.35;;
24521;SDS011;12680;57.804;12.190;2023-03-21T04:41:20;1.63;;;1.20;;
24521;SDS011;12680;57.804;12.190;2023-03-21T04:43:46;1.70;;;1.38;;
24521;SDS011;12680;57.804;12.190;2023-03-21T04:46:13;1.80;;;1.10;;
24521;SDS011;12680;57.804;12.190;2023-03-21T04:48:40;2.03;;;1.38;;
24521;SDS011;12680;57.804;12.190;2023-03-21T04:51:07;1.95;;;1.30;;
24521;SDS011;12680;57.804;12.190;2023-03-21T04:53:34;2.33;;;1.70;;
24521;SDS011;12680;57.804;12.190;2023-03-21T04:56:03;1.70;;;1.30;;
24521;SDS011;12680;57.804;12.190;2023-03-21T04:58:31;2.50;;;1.40;;
24521;SDS011;12680;57.804;12.190;2023-03-21T05:00:58;2.63;;;1.52;;
24521;SDS011;12680;57.804;12.190;2023-03-21T05:03:27;1.88;;;1.40;;
24521;SDS011;12680;57.804;12.190;2023-03-21T05:05:59;2.13;;;1.30;;
24521;SDS011;12680;57.804;12.190;2023-03-21T05:08:26;1.42;;;1.30;;
24521;SDS011;12680;57.804;12.190;2023-03-21T05:10:53;1.63;;;1.38;;
24521;SDS011;12680;57.804;12.190;2023-03-21T05:13:20;2.85;;;1.98;;
24521;SDS011;12680;57.804;12.190;2023-03-21T05:15:47;1.80;;;1.50;;
24521;SDS011;12680;57.804;12.190;2023-03-21T05:18:14;2.63;;;1.70;;
24521;SDS011;12680;57.804;12.190;2023-03-21T05:20:40;2.08;;;1.58;;
24521;SDS011;12680;57.804;12.190;2023-03-21T05:23:10;2.47;;;2.05;;
24521;SDS011;12680;57.804;12.190;2023-03-21T05:25:38;1.95;;;1.63;;
24521;SDS011;12680;57.804;12.190;2023-03-21T05:28:06;3.08;;;2.53;;
24521;SDS011;12680;57.804;12.190;2023-03-21T05:30:33;3.22;;;2.10;;
24521;SDS011;12680;57.804;12.190;2023-03-21T05:32:59;3.25;;;2.15;;
24521;SDS011;12680;57.804;12.190;2023-03-21T05:35:26;2.33;;;2.00;;
24521;SDS011;12680;57.804;12.190;2023-03-21T05:37:54;3.05;;;2.22;;
24521;SDS011;12680;57.804;12.190;2023-03-21T05:40:21;2.53;;;2.00;;
24521;SDS011;12680;57.804;12.190;2023-03-21T05:42:48;3.25;;;2.20;;
24521;SDS011;12680;57.804;12.190;2023-03-21T05:45:14;4.63;;;2.60;;
24521;SDS011;12680;57.804;12.190;2023-03-21T05:47:41;4.50;;;2.60;;
24521;SDS011;12680;57.804;12.190;2023-03-21T05:50:09;3.90;;;2.67;;
24521;SDS011;12680;57.804;12.190;2023-03-21T05:52:38;4.07;;;2.92;;
24521;SDS011;12680;57.804;12.190;2023-03-21T05:55:05;5.60;;;2.78;;
24521;SDS011;12680;57.804;12.190;2023-03-21T05:57:32;3.40;;;2.42;;
24521;SDS011;12680;57.804;12.190;2023-03-21T06:00:04;3.97;;;3.03;;
24521;SDS011;12680;57.804;12.190;2023-03-21T06:02:32;3.17;;;2.45;;
24521;SDS011;12680;57.804;12.190;2023-03-21T06:04:59;3.95;;;2.85;;
24521;SDS011;12680;57.804;12.190;2023-03-21T06:07:26;5.35;;;3.45;;
24521;SDS011;12680;57.804;12.190;2023-03-21T06:09:53;3.67;;;2.75;;
24521;SDS011;12680;57.804;12.190;2023-03-21T06:12:19;5.55;;;3.50;;
24521;SDS011;12680;57.804;12.190;2023-03-21T06:14:46;4.97;;;3.67;;
24521;SDS011;12680;57.804;12.190;2023-03-21T06:17:13;3.92;;;3.10;;
24521;SDS011;12680;57.804;12.190;2023-03-21T06:19:41;5.85;;;3.60;;
24521;SDS011;12680;57.804;12.190;2023-03-21T06:22:07;5.18;;;3.25;;
24521;SDS011;12680;57.804;12.190;2023-03-21T06:24:34;5.80;;;3.80;;
24521;SDS011;12680;57.804;12.190;2023-03-21T06:27:01;6.03;;;3.58;;
24521;SDS011;12680;57.804;12.190;2023-03-21T06:29:29;6.70;;;3.53;;
24521;SDS011;12680;57.804;12.190;2023-03-21T06:31:56;4.15;;;3.45;;
24521;SDS011;12680;57.804;12.190;2023-03-21T06:34:23;6.45;;;3.95;;
24521;SDS011;12680;57.804;12.190;2023-03-21T06:36:50;7.75;;;3.60;;
24521;SDS011;12680;57.804;12.190;2023-03-21T06:39:17;6.30;;;3.58;;
24521;SDS011;12680;57.804;12.190;2023-03-21T06:41:44;6.88;;;4.13;;
24521;SDS011;12680;57.804;12.190;2023-03-21T06:44:10;6.53;;;4.20;;
24521;SDS011;12680;57.804;12.190;2023-03-21T06:46:37;8.80;;;4.25;;
24521;SDS011;12680;57.804;12.190;2023-03-21T06:49:04;5.50;;;3.75;;
24521;SDS011;12680;57.804;12.190;2023-03-21T06:51:31;4.35;;;3.47;;
24521;SDS011;12680;57.804;12.190;2023-03-21T06:53:57;4.53;;;3.35;;
24521;SDS011;12680;57.804;12.190;2023-03-21T06:56:24;5.05;;;3.55;;
24521;SDS011;12680;57.804;12.190;2023-03-21T06:58:51;5.47;;;3.28;;
24521;SDS011;12680;57.804;12.190;2023-03-21T07:01:18;5.78;;;3.50;;
24521;SDS011;12680;57.804;12.190;2023-03-21T07:03:45;4.85;;;3.60;;
24521;SDS011;12680;57.804;12.190;2023-03-21T07:06:12;4.30;;;3.55;;
24521;SDS011;12680;57.804;12.190;2023-03-21T07:08:39;4.13;;;3.25;;
24521;SDS011;12680;57.804;12.190;2023-03-21T07:11:07;3.78;;;3.20;;
24521;SDS011;12680;57.804;12.190;2023-03-21T07:13:34;4.75;;;2.78;;
24521;SDS011;12680;57.804;12.190;2023-03-21T07:16:01;2.63;;;2.38;;
24521;SDS011;12680;57.804;12.190;2023-03-21T07:18:28;3.22;;;2.65;;
24521;SDS011;12680;57.804;12.190;2023-03-21T07:20:56;5.43;;;2.78;;
24521;SDS011;12680;57.804;12.190;2023-03-21T07:23:23;3.25;;;2.70;;
24521;SDS011;12680;57.804;12.190;2023-03-21T07:25:51;3.58;;;2.92;;
24521;SDS011;12680;57.804;12.190;2023-03-21T07:28:18;3.35;;;2.70;;
24521;SDS011;12680;57.804;12.190;2023-03-21T07:30:52;3.45;;;2.90;;
24521;SDS011;12680;57.804;12.190;2023-03-21T07:33:21;4.47;;;2.55;;
24521;SDS011;12680;57.804;12.190;2023-03-21T07:35:49;3.67;;;2.60;;
24521;SDS011;12680;57.804;12.190;2023-03-21T07:38:17;5.40;;;2.50;;
24521;SDS011;12680;57.804;12.190;2023-03-21T07:40:45;3.42;;;2.78;;
24521;SDS011;12680;57.804;12.190;2023-03-21T07:43:13;2.40;;;2.20;;
24521;SDS011;12680;57.804;12.190;2023-03-21T07:45:41;2.10;;;1.70;;
24521;SDS011;12680;57.804;12.190;2023-03-21T07:48:09;2.88;;;2.08;;
24521;SDS011;12680;57.804;12.190;2023-03-21T07:50:38;4.80;;;2.20;;
24521;SDS011;12680;57.804;12.190;2023-03-21T07:53:06;2.90;;;2.10;;
24521;SDS011;12680;57.804;12.190;2023-03-21T07:55:33;3.20;;;2.10;;
24521;SDS011;12680;57.804;12.190;2023-03-21T07:58:00;3.90;;;2.40;;
24521;SDS011;12680;57.804;12.190;2023-03-21T08:00:28;2.10;;;1.90;;
24521;SDS011;12680;57.804;12.190;2023-03-21T08:02:55;2.53;;;2.10;;
24521;SDS011;12680;57.804;12.190;2023-03-21T08:05:28;3.10;;;2.15;;
24521;SDS011;12680;57.804;12.190;2023-03-21T08:07:58;3.28;;;2.00;;
24521;SDS011;12680;57.804;12.190;2023-03-21T08:10:26;2.45;;;2.22;;
24521;SDS011;12680;57.804;12.190;2023-03-21T08:12:53;3.63;;;2.03;;
24521;SDS011;12680;57.804;12.190;2023-03-21T08:15:19;5.57;;;2.30;;
24521;SDS011;12680;57.804;12.190;2023-03-21T08:17:46;3.03;;;2.13;;
24521;SDS011;12680;57.804;12.190;2023-03-21T08:20:16;6.03;;;1.98;;
24521;SDS011;12680;57.804;12.190;2023-03-21T08:22:46;2.28;;;1.80;;
24521;SDS011;12680;57.804;12.190;2023-03-21T08:25:15;5.47;;;2.33;;
24521;SDS011;12680;57.804;12.190;2023-03-21T08:27:43;2.15;;;1.90;;
24521;SDS011;12680;57.804;12.190;2023-03-21T08:30:11;2.65;;;2.25;;
24521;SDS011;12680;57.804;12.190;2023-03-21T08:32:40;2.60;;;2.40;;
24521;SDS011;12680;57.804;12.190;2023-03-21T08:35:08;4.30;;;2.42;;
24521;SDS011;12680;57.804;12.190;2023-03-21T08:37:37;3.42;;;2.33;;
24521;SDS011;12680;57.804;12.190;2023-03-21T08:40:06;2.78;;;2.28;;
24521;SDS011;12680;57.804;12.190;2023-03-21T08:42:36;2.95;;;2.30;;
24521;SDS011;12680;57.804;12.190;2023-03-21T08:45:04;2.47;;;2.25;;
24521;SDS011;12680;57.804;12.190;2023-03-21T08:47:32;3.85;;;2.42;;
24521;SDS011;12680;57.804;12.190;2023-03-21T08:49:59;3.00;;;2.60;;
24521;SDS011;12680;57.804;12.190;2023-03-21T08:52:26;3.72;;;2.85;;
24521;SDS011;12680;57.804;12.190;2023-03-21T08:54:53;3.00;;;2.55;;
24521;SDS011;12680;57.804;12.190;2023-03-21T08:57:20;3.55;;;2.70;;
24521;SDS011;12680;57.804;12.190;2023-03-21T08:59:47;5.30;;;2.67;;
24521;SDS011;12680;57.804;12.190;2023-03-21T09:02:14;5.07;;;3.03;;
24521;SDS011;12680;57.804;12.190;2023-03-21T09:04:42;3.75;;;2.83;;
24521;SDS011;12680;57.804;12.190;2023-03-21T09:07:10;3.70;;;3.00;;
24521;SDS011;12680;57.804;12.190;2023-03-21T09:09:43;6.75;;;3.00;;
24521;SDS011;12680;57.804;12.190;2023-03-21T09:12:15;4.22;;;3.22;;
24521;SDS011;12680;57.804;12.190;2023-03-21T09:14:42;3.97;;;2.78;;
24521;SDS011;12680;57.804;12.190;2023-03-21T09:17:09;4.25;;;3.22;;
24521;SDS011;12680;57.804;12.190;2023-03-21T09:19:36;3.50;;;2.92;;
24521;SDS011;12680;57.804;12.190;2023-03-21T09:22:03;4.97;;;3.20;;
24521;SDS011;12680;57.804;12.190;2023-03-21T09:24:31;4.93;;;3.65;;
24521;SDS011;12680;57.804;12.190;2023-03-21T09:26:57;6.22;;;3.30;;
24521;SDS011;12680;57.804;12.190;2023-03-21T09:29:24;3.97;;;3.05;;
24521;SDS011;12680;57.804;12.190;2023-03-21T09:31:52;6.35;;;3.92;;
24521;SDS011;12680;57.804;12.190;2023-03-21T09:34:19;6.07;;;4.28;;
24521;SDS011;12680;57.804;12.190;2023-03-21T09:36:46;6.15;;;3.95;;
24521;SDS011;12680;57.804;12.190;2023-03-21T09:39:13;6.70;;;4.03;;
24521;SDS011;12680;57.804;12.190;2023-03-21T09:47:22;4.75;;;3.35;;
24521;SDS011;12680;57.804;12.190;2023-03-21T09:50:03;7.63;;;4.13;;
24521;SDS011;12680;57.804;12.190;2023-03-21T09:55:20;8.10;;;4.00;;
24521;SDS011;12680;57.804;12.190;2023-03-21T09:58:04;7.28;;;3.78;;
24521;SDS011;12680;57.804;12.190;2023-03-21T10:00:33;6.53;;;3.47;;
24521;SDS011;12680;57.804;12.190;2023-03-21T10:03:06;6.53;;;3.47;;
24521;SDS011;12680;57.804;12.190;2023-03-21T10:05:50;5.68;;;3.70;;
24521;SDS011;12680;57.804;12.190;2023-03-21T10:08:23;6.22;;;3.25;;
24521;SDS011;12680;57.804;12.190;2023-03-21T10:10:54;6.93;;;3.38;;
24521;SDS011;12680;57.804;12.190;2023-03-21T10:13:25;6.18;;;3.20;;
24521;SDS011;12680;57.804;12.190;2023-03-21T10:15:59;4.20;;;2.67;;
24521;SDS011;12680;57.804;12.190;2023-03-21T10:18:29;5.88;;;2.45;;
24521;SDS011;12680;57.804;12.190;2023-03-21T10:20:56;5.28;;;2.40;;
24521;SDS011;12680;57.804;12.190;2023-03-21T10:23:27;6.72;;;2.67;;
24521;SDS011;12680;57.804;12.190;2023-03-21T10:25:56;7.70;;;2.40;;
24521;SDS011;12680;57.804;12.190;2023-03-21T10:28:30;3.45;;;2.53;;
24521;SDS011;12680;57.804;12.190;2023-03-21T10:31:18;4.80;;;2.00;;
24521;SDS011;12680;57.804;12.190;2023-03-21T10:33:51;8.48;;;2.15;;
24521;SDS011;12680;57.804;12.190;2023-03-21T10:36:24;6.07;;;2.30;;
24521;SDS011;12680;57.804;12.190;2023-03-21T10:38:58;8.27;;;2.60;;
24521;SDS011;12680;57.804;12.190;2023-03-21T10:41:27;4.40;;;2.17;;
24521;SDS011;12680;57.804;12.190;2023-03-21T10:44:07;3.90;;;2.13;;
24521;SDS011;12680;57.804;12.190;2023-03-21T10:46:34;5.38;;;2.10;;
24521;SDS011;12680;57.804;12.190;2023-03-21T10:49:01;4.03;;;1.63;;
24521;SDS011;12680;57.804;12.190;2023-03-21T10:51:32;8.88;;;2.20;;
24521;SDS011;12680;57.804;12.190;2023-03-21T10:54:06;5.55;;;1.92;;
24521;SDS011;12680;57.804;12.190;2023-03-21T10:56:37;6.18;;;1.95;;
24521;SDS011;12680;57.804;12.190;2023-03-21T10:59:09;4.93;;;2.20;;
24521;SDS011;12680;57.804;12.190;2023-03-21T11:01:47;3.13;;;1.90;;
24521;SDS011;12680;57.804;12.190;2023-03-21T11:04:17;3.65;;;1.73;;
24521;SDS011;12680;57.804;12.190;2023-03-21T11:06:54;4.65;;;1.90;;
24521;SDS011;12680;57.804;12.190;2023-03-21T11:09:25;2.85;;;1.52;;
24521;SDS011;12680;57.804;12.190;2023-03-21T11:12:09;5.15;;;1.60;;
24521;SDS011;12680;57.804;12.190;2023-03-21T11:14:40;7.25;;;1.85;;
24521;SDS011;12680;57.804;12.190;2023-03-21T11:19:49;2.67;;;1.25;;
24521;SDS011;12680;57.804;12.190;2023-03-21T11:25:00;4.70;;;1.50;;
24521;SDS011;12680;57.804;12.190;2023-03-21T11:27:27;4.10;;;1.63;;
24521;SDS011;12680;57.804;12.190;2023-03-21T11:29:56;5.93;;;1.60;;
24521;SDS011;12680;57.804;12.190;2023-03-21T11:32:31;7.53;;;2.15;;
24521;SDS011;12680;57.804;12.190;2023-03-21T11:34:59;3.47;;;1.70;;
24521;SDS011;12680;57.804;12.190;2023-03-21T11:40:06;4.07;;;1.48;;
24521;SDS011;12680;57.804;12.190;2023-03-21T11:42:44;3.13;;;1.80;;
24521;SDS011;12680;57.804;12.190;2023-03-21T11:47:49;5.57;;;1.40;;
24521;SDS011;12680;57.804;12.190;2023-03-21T11:50:21;2.75;;;1.30;;
24521;SDS011;12680;57.804;12.190;2023-03-21T11:55:34;2.17;;;1.15;;
24521;SDS011;12680;57.804;12.190;2023-03-21T12:01:36;2.20;;;1.00;;
24521;SDS011;12680;57.804;12.190;2023-03-21T12:07:01;2.58;;;1.00;;
24521;SDS011;12680;57.804;12.190;2023-03-21T12:12:08;3.17;;;1.00;;
24521;SDS011;12680;57.804;12.190;2023-03-21T12:15:08;0.68;;;0.63;;
24521;SDS011;12680;57.804;12.190;2023-03-21T12:18:05;2.83;;;1.00;;
24521;SDS011;12680;57.804;12.190;2023-03-21T12:25:41;3.05;;;0.98;;
24521;SDS011;12680;57.804;12.190;2023-03-21T12:34:17;2.92;;;0.68;;
24521;SDS011;12680;57.804;12.190;2023-03-21T12:37:04;2.65;;;0.93;;
24521;SDS011;12680;57.804;12.190;2023-03-21T12:39:38;1.60;;;0.90;;
24521;SDS011;12680;57.804;12.190;2023-03-21T12:42:14;2.92;;;1.05;;
24521;SDS011;12680;57.804;12.190;2023-03-21T12:45:04;2.80;;;0.95;;
24521;SDS011;12680;57.804;12.190;2023-03-21T12:47:41;4.38;;;0.80;;
24521;SDS011;12680;57.804;12.190;2023-03-21T12:50:16;3.30;;;0.77;;
24521;SDS011;12680;57.804;12.190;2023-03-21T12:52:49;1.83;;;0.80;;
24521;SDS011;12680;57.804;12.190;2023-03-21T12:55:23;4.32;;;0.95;;
24521;SDS011;12680;57.804;12.190;2023-03-21T12:57:59;5.47;;;1.27;;
24521;SDS011;12680;57.804;12.190;2023-03-21T13:00:35;1.40;;;0.60;;
24521;SDS011;12680;57.804;12.190;2023-03-21T13:03:13;5.63;;;1.00;;
24521;SDS011;12680;57.804;12.190;2023-03-21T13:06:04;2.60;;;1.00;;
24521;SDS011;12680;57.804;12.190;2023-03-21T13:11:24;2.88;;;0.90;;
24521;SDS011;12680;57.804;12.190;2023-03-21T13:16:22;4.05;;;1.05;;
24521;SDS011;12680;57.804;12.190;2023-03-21T13:24:33;3.47;;;1.15;;
24521;SDS011;12680;57.804;12.190;2023-03-21T13:30:05;2.85;;;0.70;;
24521;SDS011;12680;57.804;12.190;2023-03-21T13:32:46;3.30;;;0.50;;
24521;SDS011;12680;57.804;12.190;2023-03-21T13:38:03;1.45;;;0.60;;
24521;SDS011;12680;57.804;12.190;2023-03-21T13:40:50;3.67;;;0.90;;
24521;SDS011;12680;57.804;12.190;2023-03-21T13:43:33;0.68;;;0.40;;
24521;SDS011;12680;57.804;12.190;2023-03-21T13:46:06;1.50;;;0.60;;
24521;SDS011;12680;57.804;12.190;2023-03-21T13:48:43;2.45;;;0.70;;
24521;SDS011;12680;57.804;12.190;2023-03-21T13:53:58;3.33;;;0.88;;
24521;SDS011;12680;57.804;12.190;2023-03-21T13:56:26;0.45;;;0.45;;
24521;SDS011;12680;57.804;12.190;2023-03-21T13:58:56;1.13;;;0.40;;
24521;SDS011;12680;57.804;12.190;2023-03-21T14:03:58;2.05;;;0.47;;
24521;SDS011;12680;57.804;12.190;2023-03-21T14:06:33;3.42;;;0.60;;
24521;SDS011;12680;57.804;12.190;2023-03-21T14:09:08;4.90;;;0.77;;
24521;SDS011;12680;57.804;12.190;2023-03-21T14:11:40;1.42;;;0.60;;
24521;SDS011;12680;57.804;12.190;2023-03-21T14:14:12;2.53;;;0.68;;
24521;SDS011;12680;57.804;12.190;2023-03-21T14:16:39;2.78;;;0.80;;
24521;SDS011;12680;57.804;12.190;2023-03-21T14:19:09;1.88;;;0.93;;
24521;SDS011;12680;57.804;12.190;2023-03-21T14:21:39;1.65;;;0.90;;
24521;SDS011;12680;57.804;12.190;2023-03-21T14:24:17;3.15;;;1.25;;
24521;SDS011;12680;57.804;12.190;2023-03-21T14:26:46;2.60;;;1.08;;
24521;SDS011;12680;57.804;12.190;2023-03-21T14:29:19;2.03;;;1.20;;
24521;SDS011;12680;57.804;12.190;2023-03-21T14:31:52;4.32;;;1.55;;
24521;SDS011;12680;57.804;12.190;2023-03-21T14:34:22;2.38;;;1.20;;
24521;SDS011;12680;57.804;12.190;2023-03-21T14:36:51;2.22;;;1.30;;
24521;SDS011;12680;57.804;12.190;2023-03-21T14:39:30;1.38;;;1.17;;
24521;SDS011;12680;57.804;12.190;2023-03-21T14:42:03;5.00;;;1.10;;
24521;SDS011;12680;57.804;12.190;2023-03-21T14:47:23;2.00;;;1.20;;
24521;SDS011;12680;57.804;12.190;2023-03-21T14:49:57;6.35;;;1.13;;
24521;SDS011;12680;57.804;12.190;2023-03-21T14:52:30;3.85;;;1.63;;
24521;SDS011;12680;57.804;12.190;2023-03-21T14:54:58;5.43;;;1.30;;
24521;SDS011;12680;57.804;12.190;2023-03-21T14:57:29;5.53;;;1.40;;
24521;SDS011;12680;57.804;12.190;2023-03-21T14:59:59;2.00;;;1.50;;
24521;SDS011;12680;57.804;12.190;2023-03-21T15:02:37;4.85;;;1.88;;
24521;SDS011;12680;57.804;12.190;2023-03-21T15:05:12;3.22;;;1.88;;
24521;SDS011;12680;57.804;12.190;2023-03-21T15:07:52;4.03;;;1.70;;
24521;SDS011;12680;57.804;12.190;2023-03-21T15:10:28;3.25;;;2.33;;
24521;SDS011;12680;57.804;12.190;2023-03-21T15:13:01;3.33;;;2.10;;
24521;SDS011;12680;57.804;12.190;2023-03-21T15:15:43;3.88;;;2.30;;
24521;SDS011;12680;57.804;12.190;2023-03-21T15:18:12;4.18;;;2.55;;
24521;SDS011;12680;57.804;12.190;2023-03-21T15:20:43;4.50;;;2.28;;
24521;SDS011;12680;57.804;12.190;2023-03-21T15:23:19;6.72;;;2.70;;
24521;SDS011;12680;57.804;12.190;2023-03-21T15:25:56;3.88;;;2.35;;
24521;SDS011;12680;57.804;12.190;2023-03-21T15:28:24;6.35;;;3.42;;
24521;SDS011;12680;57.804;12.190;2023-03-21T15:30:51;5.90;;;3.10;;
24521;SDS011;12680;57.804;12.190;2023-03-21T15:33:19;4.88;;;2.47;;
24521;SDS011;12680;57.804;12.190;2023-03-21T15:35:51;3.88;;;2.50;;
24521;SDS011;12680;57.804;12.190;2023-03-21T15:46:32;4.35;;;2.42;;
24521;SDS011;12680;57.804;12.190;2023-03-21T15:51:41;5.13;;;2.45;;
24521;SDS011;12680;57.804;12.190;2023-03-21T15:54:15;4.78;;;2.47;;
24521;SDS011;12680;57.804;12.190;2023-03-21T15:56:47;7.22;;;2.47;;
24521;SDS011;12680;57.804;12.190;2023-03-21T15:59:16;5.32;;;2.45;;
24521;SDS011;12680;57.804;12.190;2023-03-21T16:01:48;4.68;;;2.10;;
24521;SDS011;12680;57.804;12.190;2023-03-21T16:04:16;9.45;;;2.75;;
24521;SDS011;12680;57.804;12.190;2023-03-21T16:06:55;6.63;;;2.50;;
24521;SDS011;12680;57.804;12.190;2023-03-21T16:09:41;2.50;;;2.15;;
24521;SDS011;12680;57.804;12.190;2023-03-21T16:12:11;3.17;;;2.08;;
24521;SDS011;12680;57.804;12.190;2023-03-21T16:14:39;5.05;;;2.60;;
24521;SDS011;12680;57.804;12.190;2023-03-21T16:20:11;4.38;;;2.03;;
24521;SDS011;12680;57.804;12.190;2023-03-21T16:22:43;9.57;;;2.15;;
24521;SDS011;12680;57.804;12.190;2023-03-21T16:25:10;6.72;;;2.50;;
24521;SDS011;12680;57.804;12.190;2023-03-21T16:27:37;3.33;;;2.03;;
24521;SDS011;12680;57.804;12.190;2023-03-21T16:30:04;2.67;;;1.88;;
24521;SDS011;12680;57.804;12.190;2023-03-21T16:32:35;4.68;;;2.10;;
24521;SDS011;12680;57.804;12.190;2023-03-21T16:35:02;3.35;;;2.00;;
24521;SDS011;12680;57.804;12.190;2023-03-21T16:37:31;4.05;;;2.42;;
24521;SDS011;12680;57.804;12.190;2023-03-21T16:39:57;5.55;;;2.70;;
24521;SDS011;12680;57.804;12.190;2023-03-21T16:42:24;5.78;;;3.13;;
24521;SDS011;12680;57.804;12.190;2023-03-21T16:44:51;5.75;;;3.63;;
24521;SDS011;12680;57.804;12.190;2023-03-21T16:47:19;7.47;;;4.65;;
24521;SDS011;12680;57.804;12.190;2023-03-21T16:49:48;9.82;;;4.47;;